createdAt,value
2017-09-24T00:00:38.456Z,99.74
2017-09-24T00:01:44.322Z,99.86
2017-09-24T00:02:50.393Z,99.09
2017-09-24T00:03:56.526Z,98.19
2017-09-24T00:05:02.580Z,98.28
2017-09-24T00:06:08.666Z,98.58
2017-09-24T00:07:14.719Z,98.69
2017-09-24T00:08:20.561Z,98.47
2017-09-24T00:09:26.669Z,99.30
2017-09-24T00:10:32.735Z,99.68
2017-09-24T00:11:38.829Z,99.51
2017-09-24T00:12:44.877Z,99.97
2017-09-24T00:13:50.934Z,100.00
2017-09-24T00:14:57.015Z,100.00
2017-09-24T00:16:03.095Z,100.00
2017-09-24T00:17:09.213Z,100.00
2017-09-24T00:18:15.345Z,100.00
2017-09-24T00:19:21.474Z,100.00
2017-09-24T00:20:27.574Z,100.00
2017-09-24T00:21:33.654Z,100.00
2017-09-24T00:22:39.813Z,100.00
2017-09-24T00:23:45.897Z,100.00
2017-09-24T00:24:51.795Z,100.00
2017-09-24T00:25:57.683Z,100.00
2017-09-24T00:27:04.574Z,100.00
2017-09-24T00:28:10.463Z,100.00
2017-09-24T00:29:16.337Z,100.00
2017-09-24T00:30:22.007Z,100.00
2017-09-24T00:31:27.878Z,100.00
2017-09-24T00:32:33.761Z,100.00
2017-09-24T00:33:40.700Z,100.00
2017-09-24T00:34:46.627Z,100.00
2017-09-24T00:35:52.500Z,100.00
2017-09-24T00:36:59.471Z,100.00
2017-09-24T00:38:05.563Z,100.00
2017-09-24T00:39:12.305Z,100.00
2017-09-24T00:40:18.182Z,100.00
2017-09-24T00:41:24.018Z,100.00
2017-09-24T00:42:30.100Z,100.00
2017-09-24T00:43:36.188Z,100.00
2017-09-24T00:44:42.090Z,100.00
2017-09-24T00:45:48.140Z,100.00
2017-09-24T00:46:53.878Z,100.00
2017-09-24T00:48:00.267Z,100.00
2017-09-24T00:49:06.339Z,100.00
2017-09-24T00:50:12.468Z,100.00
2017-09-24T00:51:18.331Z,100.00
2017-09-24T00:52:24.434Z,100.00
2017-09-24T00:53:30.291Z,100.00
2017-09-24T00:54:35.998Z,100.00
2017-09-24T00:55:41.742Z,100.00
2017-09-24T00:56:46.897Z,100.00
2017-09-24T00:57:52.977Z,100.00
2017-09-24T00:58:58.243Z,100.00
2017-09-24T01:00:03.388Z,100.00
2017-09-24T01:01:08.946Z,100.00
2017-09-24T01:02:14.819Z,100.00
2017-09-24T01:03:20.893Z,100.00
2017-09-24T01:04:27.294Z,100.00
2017-09-24T01:05:34.258Z,100.00
2017-09-24T01:06:40.213Z,100.00
2017-09-24T01:07:46.266Z,100.00
2017-09-24T01:08:52.327Z,100.00
2017-09-24T01:09:58.404Z,100.00
2017-09-24T01:11:04.281Z,100.00
2017-09-24T01:12:10.397Z,100.00
2017-09-24T01:13:16.275Z,100.00
2017-09-24T01:14:21.972Z,100.00
2017-09-24T01:15:27.663Z,100.00
2017-09-24T01:16:33.514Z,100.00
2017-09-24T01:17:40.522Z,100.00
2017-09-24T01:18:46.238Z,99.94
2017-09-24T01:19:51.918Z,99.97
2017-09-24T01:20:57.066Z,100.00
2017-09-24T01:22:02.798Z,100.00
2017-09-24T01:23:07.972Z,100.00
2017-09-24T01:24:13.665Z,100.00
2017-09-24T01:25:18.814Z,100.00
2017-09-24T01:26:24.002Z,100.00
2017-09-24T01:27:29.152Z,100.00
2017-09-24T01:28:34.934Z,100.00
2017-09-24T01:29:40.355Z,100.00
2017-09-24T01:30:45.802Z,100.00
2017-09-24T01:31:51.161Z,100.00
2017-09-24T01:32:56.895Z,100.00
2017-09-24T01:34:02.325Z,100.00
2017-09-24T01:35:08.638Z,99.28
2017-09-24T01:36:14.390Z,99.25
2017-09-24T01:37:20.138Z,99.58
2017-09-24T01:38:25.475Z,99.20
2017-09-24T01:39:31.714Z,98.52
2017-09-24T01:40:38.667Z,98.50
2017-09-24T01:41:44.410Z,98.53
2017-09-24T01:42:50.121Z,98.99
2017-09-24T01:43:55.859Z,98.92
2017-09-24T01:45:01.407Z,99.54
2017-09-24T01:46:07.153Z,100.00
2017-09-24T01:47:13.251Z,100.00
2017-09-24T01:48:18.985Z,100.00
2017-09-24T01:49:24.166Z,100.00
2017-09-24T01:50:29.546Z,100.00
2017-09-24T01:51:35.257Z,100.00
2017-09-24T01:52:41.402Z,100.00
2017-09-24T01:53:47.074Z,100.00
2017-09-24T01:54:52.238Z,100.00
2017-09-24T01:55:57.984Z,100.00
2017-09-24T01:57:03.479Z,99.78
2017-09-24T01:58:08.827Z,99.11
2017-09-24T01:59:14.508Z,99.35
2017-09-24T02:00:21.133Z,99.47
2017-09-24T02:01:27.039Z,99.60
2017-09-24T02:02:32.914Z,99.65
2017-09-24T02:03:38.777Z,100.00
2017-09-24T02:04:44.647Z,100.00
2017-09-24T02:05:50.729Z,100.00
2017-09-24T02:06:56.829Z,100.00
2017-09-24T02:08:03.793Z,100.00
2017-09-24T02:09:09.859Z,100.00
2017-09-24T02:10:15.817Z,100.00
2017-09-24T02:11:21.889Z,100.00
2017-09-24T02:12:28.000Z,100.00
2017-09-24T02:13:34.063Z,100.00
2017-09-24T02:14:41.013Z,100.00
2017-09-24T02:15:47.089Z,100.00
2017-09-24T02:16:53.166Z,100.00
2017-09-24T02:17:59.279Z,100.00
2017-09-24T02:19:05.333Z,99.90
2017-09-24T02:20:11.178Z,99.32
2017-09-24T02:21:17.051Z,98.90
2017-09-24T02:22:23.091Z,98.92
2017-09-24T02:23:29.205Z,99.27
2017-09-24T02:24:35.243Z,99.82
2017-09-24T02:25:41.375Z,100.00
2017-09-24T02:26:48.337Z,100.00
2017-09-24T02:27:54.412Z,100.00
2017-09-24T02:29:00.521Z,100.00
2017-09-24T02:30:07.508Z,100.00
2017-09-24T02:31:13.574Z,100.00
2017-09-24T02:32:19.666Z,100.00
2017-09-24T02:33:25.739Z,100.00
2017-09-24T02:34:31.855Z,100.00
2017-09-24T02:35:37.948Z,100.00
2017-09-24T02:36:44.018Z,100.00
2017-09-24T02:37:50.103Z,100.00
2017-09-24T02:38:57.218Z,100.00
2017-09-24T02:40:03.133Z,100.00
2017-09-24T02:41:09.226Z,100.00
2017-09-24T02:42:16.010Z,100.00
2017-09-24T02:43:22.075Z,99.88
2017-09-24T02:44:27.961Z,99.91
2017-09-24T02:45:33.869Z,99.82
2017-09-24T02:46:39.946Z,99.83
2017-09-24T02:47:46.019Z,100.00
2017-09-24T02:48:52.094Z,100.00
2017-09-24T02:49:58.174Z,100.00
2017-09-24T02:51:04.077Z,99.28
2017-09-24T02:52:09.958Z,99.22
2017-09-24T02:53:16.182Z,99.75
2017-09-24T02:54:22.259Z,99.98
2017-09-24T02:55:29.250Z,100.00
2017-09-24T02:56:35.381Z,100.00
2017-09-24T02:57:41.448Z,100.00
2017-09-24T02:58:48.414Z,100.00
2017-09-24T02:59:54.470Z,99.80
2017-09-24T03:01:00.531Z,99.38
2017-09-24T03:02:06.605Z,99.57
2017-09-24T03:03:12.668Z,99.25
2017-09-24T03:04:18.744Z,99.09
2017-09-24T03:05:24.848Z,98.83
2017-09-24T03:06:30.923Z,98.68
2017-09-24T03:07:37.148Z,98.71
2017-09-24T03:08:43.209Z,98.65
2017-09-24T03:09:49.276Z,98.57
2017-09-24T03:10:55.411Z,98.20
2017-09-24T03:12:01.478Z,97.92
2017-09-24T03:13:07.578Z,97.46
2017-09-24T03:14:13.624Z,97.13
2017-09-24T03:15:19.671Z,96.74
2017-09-24T03:16:25.726Z,97.45
2017-09-24T03:17:31.771Z,97.28
2017-09-24T03:18:38.169Z,98.32
2017-09-24T03:19:44.364Z,97.87
2017-09-24T03:20:51.347Z,97.95
2017-09-24T03:21:57.474Z,98.28
2017-09-24T03:23:03.546Z,98.08
2017-09-24T03:24:09.644Z,97.73
2017-09-24T03:25:18.661Z,98.52
2017-09-24T03:26:24.762Z,97.50
2017-09-24T03:27:30.869Z,98.68
2017-09-24T03:28:36.953Z,98.04
2017-09-24T03:29:43.069Z,97.73
2017-09-24T03:30:49.169Z,97.70
2017-09-24T03:31:55.262Z,97.84
2017-09-24T03:33:01.378Z,98.21
2017-09-24T03:34:07.462Z,97.98
2017-09-24T03:35:13.608Z,98.18
2017-09-24T03:36:19.695Z,97.96
2017-09-24T03:37:26.259Z,98.65
2017-09-24T03:38:32.340Z,98.40
2017-09-24T03:39:38.416Z,98.55
2017-09-24T03:40:44.491Z,98.84
2017-09-24T03:41:50.557Z,98.83
2017-09-24T03:42:56.624Z,98.74
2017-09-24T03:44:02.694Z,98.84
2017-09-24T03:45:08.795Z,97.86
2017-09-24T03:46:14.923Z,98.00
2017-09-24T03:47:20.990Z,98.00
2017-09-24T03:48:27.061Z,98.15
2017-09-24T03:49:33.118Z,97.31
2017-09-24T03:50:39.178Z,97.13
2017-09-24T03:51:45.281Z,97.79
2017-09-24T03:52:51.374Z,97.51
2017-09-24T03:53:57.455Z,97.99
2017-09-24T03:55:03.537Z,97.15
2017-09-24T03:56:09.415Z,96.48
2017-09-24T03:57:15.342Z,96.58
2017-09-24T03:58:21.399Z,96.64
2017-09-24T03:59:27.463Z,96.65
2017-09-24T04:00:33.166Z,97.47
2017-09-24T04:01:39.273Z,98.54
2017-09-24T04:02:47.207Z,98.53
2017-09-24T04:03:53.270Z,98.67
2017-09-24T04:04:59.346Z,98.14
2017-09-24T04:06:05.451Z,98.33
2017-09-24T04:07:11.545Z,98.49
2017-09-24T04:08:17.669Z,98.62
2017-09-24T04:09:23.801Z,98.84
2017-09-24T04:10:29.679Z,98.72
2017-09-24T04:11:35.760Z,98.61
2017-09-24T04:12:41.865Z,98.37
2017-09-24T04:13:48.047Z,98.22
2017-09-24T04:14:54.086Z,98.42
2017-09-24T04:16:00.182Z,98.02
2017-09-24T04:17:07.267Z,98.28
2017-09-24T04:18:13.376Z,98.45
2017-09-24T04:19:19.520Z,98.63
2017-09-24T04:20:26.499Z,97.84
2017-09-24T04:21:32.584Z,97.69
2017-09-24T04:22:38.662Z,97.22
2017-09-24T04:23:46.895Z,97.15
2017-09-24T04:24:53.004Z,96.90
2017-09-24T04:25:59.068Z,96.00
2017-09-24T04:27:05.138Z,96.71
2017-09-24T04:28:11.190Z,96.03
2017-09-24T04:29:17.266Z,96.03
2017-09-24T04:30:23.365Z,95.94
2017-09-24T04:31:29.421Z,96.60
2017-09-24T04:32:35.520Z,95.36
2017-09-24T04:33:41.621Z,96.00
2017-09-24T04:34:47.796Z,96.10
2017-09-24T04:35:54.189Z,96.45
2017-09-24T04:37:00.269Z,96.73
2017-09-24T04:38:06.321Z,96.93
2017-09-24T04:39:12.358Z,97.65
2017-09-24T04:40:18.412Z,97.39
2017-09-24T04:41:25.452Z,97.39
2017-09-24T04:42:31.486Z,97.96
2017-09-24T04:43:37.527Z,96.76
2017-09-24T04:44:44.505Z,97.06
2017-09-24T04:45:51.453Z,97.52
2017-09-24T04:46:58.444Z,97.51
2017-09-24T04:48:04.494Z,97.89
2017-09-24T04:49:10.620Z,97.57
2017-09-24T04:50:16.725Z,97.16
2017-09-24T04:51:22.775Z,97.95
2017-09-24T04:52:28.879Z,98.23
2017-09-24T04:53:34.937Z,98.11
2017-09-24T04:54:41.031Z,98.25
2017-09-24T04:55:47.086Z,97.51
2017-09-24T04:56:52.952Z,97.74
2017-09-24T04:57:59.077Z,97.65
2017-09-24T04:59:05.142Z,97.49
2017-09-24T05:00:11.202Z,97.51
2017-09-24T05:01:17.300Z,97.67
2017-09-24T05:02:23.360Z,97.71
2017-09-24T05:03:29.467Z,97.18
2017-09-24T05:04:35.539Z,97.03
2017-09-24T05:05:41.586Z,96.69
2017-09-24T05:06:47.725Z,96.31
2017-09-24T05:07:54.067Z,96.63
2017-09-24T05:09:00.161Z,96.84
2017-09-24T05:10:07.165Z,97.41
2017-09-24T05:11:14.119Z,97.76
2017-09-24T05:12:20.205Z,97.47
2017-09-24T05:13:26.264Z,97.54
2017-09-24T05:14:33.130Z,97.50
2017-09-24T05:15:38.465Z,97.49
2017-09-24T05:16:44.349Z,97.76
2017-09-24T05:17:50.409Z,97.34
2017-09-24T05:18:56.362Z,96.79
2017-09-24T05:20:02.491Z,96.89
2017-09-24T05:21:09.662Z,97.21
2017-09-24T05:22:16.604Z,97.53
2017-09-24T05:23:22.680Z,97.60
2017-09-24T05:24:28.735Z,97.46
2017-09-24T05:25:34.813Z,97.22
2017-09-24T05:26:40.882Z,97.48
2017-09-24T05:27:47.266Z,97.61
2017-09-24T05:28:53.303Z,97.25
2017-09-24T05:29:59.354Z,97.53
2017-09-24T05:31:05.508Z,97.65
2017-09-24T05:32:11.561Z,97.93
2017-09-24T05:33:17.423Z,97.48
2017-09-24T05:34:23.293Z,97.69
2017-09-24T05:35:29.345Z,97.85
2017-09-24T05:36:35.563Z,98.00
2017-09-24T05:37:41.637Z,98.24
2017-09-24T05:38:47.760Z,97.88
2017-09-24T05:39:54.032Z,98.38
2017-09-24T05:41:00.077Z,98.33
2017-09-24T05:42:06.186Z,97.90
2017-09-24T05:43:12.248Z,98.32
2017-09-24T05:44:18.295Z,98.60
2017-09-24T05:45:24.341Z,98.43
2017-09-24T05:46:30.396Z,98.08
2017-09-24T05:47:36.482Z,98.23
2017-09-24T05:48:42.539Z,98.35
2017-09-24T05:49:50.164Z,98.69
2017-09-24T05:50:56.228Z,98.88
2017-09-24T05:52:02.282Z,98.98
2017-09-24T05:53:08.358Z,99.01
2017-09-24T05:54:14.419Z,98.70
2017-09-24T05:55:20.581Z,98.39
2017-09-24T05:56:26.638Z,98.36
2017-09-24T05:57:32.870Z,98.45
2017-09-24T05:58:38.972Z,98.41
2017-09-24T05:59:44.830Z,98.87
2017-09-24T06:00:50.891Z,98.76
2017-09-24T06:01:57.852Z,99.57
2017-09-24T06:03:03.533Z,99.82
2017-09-24T06:04:09.635Z,99.97
2017-09-24T06:05:15.702Z,100.00
2017-09-24T06:06:22.677Z,100.00
2017-09-24T06:07:28.781Z,100.00
2017-09-24T06:08:34.642Z,100.00
2017-09-24T06:09:40.741Z,100.00
2017-09-24T06:10:46.608Z,99.55
2017-09-24T06:11:52.708Z,98.67
2017-09-24T06:12:58.982Z,98.25
2017-09-24T06:14:05.053Z,98.64
2017-09-24T06:15:11.130Z,99.38
2017-09-24T06:16:17.228Z,99.60
2017-09-24T06:17:23.312Z,100.00
2017-09-24T06:18:29.986Z,99.79
2017-09-24T06:19:36.060Z,98.38
2017-09-24T06:20:42.178Z,98.00
2017-09-24T06:21:48.430Z,98.03
2017-09-24T06:22:54.491Z,97.86
2017-09-24T06:24:00.680Z,97.92
2017-09-24T06:25:07.442Z,97.92
2017-09-24T06:26:13.604Z,97.21
2017-09-24T06:27:19.582Z,97.67
2017-09-24T06:28:25.684Z,97.08
2017-09-24T06:29:32.627Z,96.25
2017-09-24T06:30:38.574Z,95.96
2017-09-24T06:31:44.705Z,96.45
2017-09-24T06:32:50.991Z,96.10
2017-09-24T06:33:57.038Z,96.74
2017-09-24T06:35:02.899Z,95.88
2017-09-24T06:36:08.981Z,95.41
2017-09-24T06:37:15.982Z,94.98
2017-09-24T06:38:21.866Z,95.28
2017-09-24T06:39:27.930Z,94.15
2017-09-24T06:40:35.510Z,95.22
2017-09-24T06:41:41.591Z,94.76
2017-09-24T06:42:47.694Z,94.24
2017-09-24T06:43:53.781Z,93.79
2017-09-24T06:45:00.723Z,94.25
2017-09-24T06:46:06.791Z,93.15
2017-09-24T06:47:12.867Z,93.07
2017-09-24T06:48:18.974Z,93.29
2017-09-24T06:49:25.115Z,93.54
2017-09-24T06:50:31.159Z,93.01
2017-09-24T06:51:37.227Z,92.35
2017-09-24T06:52:43.304Z,92.54
2017-09-24T06:53:49.495Z,92.22
2017-09-24T06:54:55.555Z,92.82
2017-09-24T06:56:01.617Z,90.83
2017-09-24T06:57:07.686Z,91.00
2017-09-24T06:58:13.759Z,91.21
2017-09-24T06:59:19.867Z,91.93
2017-09-24T07:00:25.905Z,92.31
2017-09-24T07:01:31.761Z,92.75
2017-09-24T07:02:37.629Z,92.71
2017-09-24T07:03:43.777Z,92.73
2017-09-24T07:04:49.923Z,91.68
2017-09-24T07:05:56.474Z,91.46
2017-09-24T07:07:04.295Z,91.33
2017-09-24T07:08:10.377Z,91.93
2017-09-24T07:09:16.435Z,92.14
2017-09-24T07:10:22.528Z,91.73
2017-09-24T07:11:29.205Z,93.29
2017-09-24T07:12:35.826Z,93.96
2017-09-24T07:13:42.939Z,94.11
2017-09-24T07:14:49.439Z,92.68
2017-09-24T07:15:56.199Z,93.34
2017-09-24T07:17:02.306Z,93.36
2017-09-24T07:18:08.377Z,93.25
2017-09-24T07:19:14.429Z,93.58
2017-09-24T07:20:20.556Z,92.60
2017-09-24T07:21:26.686Z,92.61
2017-09-24T07:22:32.746Z,91.39
2017-09-24T07:23:38.801Z,91.50
2017-09-24T07:24:44.891Z,91.82
2017-09-24T07:25:50.938Z,92.03
2017-09-24T07:26:57.014Z,90.38
2017-09-24T07:28:03.090Z,90.01
2017-09-24T07:29:09.138Z,90.86
2017-09-24T07:30:15.011Z,92.35
2017-09-24T07:31:20.920Z,92.26
2017-09-24T07:32:26.836Z,93.37
2017-09-24T07:33:32.887Z,92.97
2017-09-24T07:34:38.806Z,92.60
2017-09-24T07:35:45.570Z,91.23
2017-09-24T07:36:54.744Z,91.27
2017-09-24T07:38:01.879Z,90.75
2017-09-24T07:39:08.830Z,90.25
2017-09-24T07:40:15.369Z,89.21
2017-09-24T07:41:21.702Z,91.13
2017-09-24T07:42:28.996Z,90.39
2017-09-24T07:43:35.224Z,90.59
2017-09-24T07:44:41.362Z,90.36
2017-09-24T07:45:47.932Z,90.21
2017-09-24T07:46:54.379Z,90.13
2017-09-24T07:48:00.953Z,90.94
2017-09-24T07:49:08.685Z,90.92
2017-09-24T07:50:15.265Z,90.68
2017-09-24T07:51:22.089Z,90.40
2017-09-24T07:52:29.208Z,90.49
2017-09-24T07:53:35.573Z,89.78
2017-09-24T07:54:42.148Z,91.08
2017-09-24T07:55:48.472Z,91.21
2017-09-24T07:56:54.566Z,92.44
2017-09-24T07:58:00.636Z,91.53
2017-09-24T07:59:07.410Z,90.53
2017-09-24T08:00:15.324Z,90.25
2017-09-24T08:01:23.365Z,90.60
2017-09-24T08:02:29.767Z,90.34
2017-09-24T08:03:35.921Z,90.12
2017-09-24T08:04:43.661Z,89.77
2017-09-24T08:05:50.400Z,89.03
2017-09-24T08:06:57.019Z,88.63
2017-09-24T08:08:03.172Z,88.53
2017-09-24T08:09:09.740Z,89.02
2017-09-24T08:10:16.374Z,88.86
2017-09-24T08:11:23.118Z,89.65
2017-09-24T08:12:30.834Z,88.47
2017-09-24T08:13:37.170Z,89.72
2017-09-24T08:14:43.398Z,89.53
2017-09-24T08:15:50.035Z,89.87
2017-09-24T08:16:56.855Z,90.32
2017-09-24T08:18:03.227Z,90.14
2017-09-24T08:19:09.799Z,90.91
2017-09-24T08:20:15.990Z,91.01
2017-09-24T08:21:23.090Z,90.60
2017-09-24T08:22:30.911Z,89.82
2017-09-24T08:23:40.493Z,89.55
2017-09-24T08:24:48.276Z,90.24
2017-09-24T08:25:55.148Z,89.32
2017-09-24T08:27:01.142Z,90.39
2017-09-24T08:28:07.587Z,89.90
2017-09-24T08:29:15.265Z,89.33
2017-09-24T08:30:21.650Z,89.25
2017-09-24T08:31:28.185Z,88.96
2017-09-24T08:32:34.332Z,88.78
2017-09-24T08:33:41.242Z,88.76
2017-09-24T08:34:47.733Z,88.26
2017-09-24T08:35:53.970Z,87.23
2017-09-24T08:37:00.545Z,87.66
2017-09-24T08:38:07.270Z,87.21
2017-09-24T08:39:13.954Z,87.15
2017-09-24T08:40:20.553Z,87.32
2017-09-24T08:41:27.172Z,86.85
2017-09-24T08:42:33.558Z,86.97
2017-09-24T08:43:39.889Z,87.04
2017-09-24T08:44:47.243Z,87.52
2017-09-24T08:45:53.293Z,87.83
2017-09-24T08:47:00.013Z,86.18
2017-09-24T08:48:07.434Z,87.01
2017-09-24T08:49:13.977Z,87.41
2017-09-24T08:50:20.479Z,86.84
2017-09-24T08:51:26.883Z,87.74
2017-09-24T08:52:34.536Z,88.07
2017-09-24T08:53:41.045Z,87.64
2017-09-24T08:54:47.608Z,88.05
2017-09-24T08:55:54.008Z,88.35
2017-09-24T08:57:00.629Z,87.81
2017-09-24T08:58:06.981Z,87.43
2017-09-24T08:59:13.427Z,87.53
2017-09-24T09:00:19.758Z,87.08
2017-09-24T09:01:26.509Z,88.65
2017-09-24T09:02:32.965Z,87.13
2017-09-24T09:03:39.266Z,87.56
2017-09-24T09:04:45.884Z,87.34
2017-09-24T09:05:53.347Z,87.70
2017-09-24T09:06:59.576Z,87.23
2017-09-24T09:08:05.890Z,88.37
2017-09-24T09:09:12.393Z,89.32
2017-09-24T09:10:18.458Z,88.48
2017-09-24T09:11:24.536Z,88.46
2017-09-24T09:12:30.634Z,88.27
2017-09-24T09:13:36.703Z,89.00
2017-09-24T09:14:42.766Z,88.98
2017-09-24T09:15:48.865Z,88.37
2017-09-24T09:16:54.976Z,88.45
2017-09-24T09:18:01.159Z,87.91
2017-09-24T09:19:07.219Z,87.91
2017-09-24T09:20:13.499Z,88.22
2017-09-24T09:21:18.916Z,87.83
2017-09-24T09:22:24.858Z,87.45
2017-09-24T09:23:31.204Z,87.35
2017-09-24T09:24:37.298Z,86.90
2017-09-24T09:25:43.490Z,86.71
2017-09-24T09:26:49.572Z,85.15
2017-09-24T09:27:55.683Z,85.64
2017-09-24T09:29:01.780Z,87.37
2017-09-24T09:30:07.827Z,87.91
2017-09-24T09:31:14.317Z,87.70
2017-09-24T09:32:19.656Z,87.28
2017-09-24T09:33:25.778Z,86.72
2017-09-24T09:34:34.138Z,87.35
2017-09-24T09:35:39.806Z,87.34
2017-09-24T09:36:45.988Z,87.46
2017-09-24T09:37:52.418Z,88.82
2017-09-24T09:39:00.765Z,88.43
2017-09-24T09:40:07.273Z,87.77
2017-09-24T09:41:13.131Z,89.14
2017-09-24T09:42:19.185Z,88.99
2017-09-24T09:43:50.400Z,88.89
2017-09-24T09:44:55.530Z,88.81
2017-09-24T09:46:00.880Z,89.56
2017-09-24T09:47:17.817Z,89.86
2017-09-24T09:48:23.688Z,89.47
2017-09-24T09:49:29.742Z,89.70
2017-09-24T09:50:35.823Z,89.05
2017-09-24T09:51:41.914Z,89.13
2017-09-24T09:52:47.946Z,89.02
2017-09-24T09:53:53.823Z,88.53
2017-09-24T09:54:59.879Z,88.22
2017-09-24T09:56:05.978Z,88.35
2017-09-24T09:57:12.054Z,88.28
2017-09-24T09:58:18.110Z,87.90
2017-09-24T09:59:24.344Z,87.42
2017-09-24T10:00:30.423Z,86.16
2017-09-24T10:01:36.511Z,86.92
2017-09-24T10:02:42.563Z,87.32
2017-09-24T10:03:48.650Z,87.70
2017-09-24T10:04:54.718Z,88.89
2017-09-24T10:06:00.776Z,88.46
2017-09-24T10:07:17.730Z,88.51
2017-09-24T10:08:34.660Z,88.31
2017-09-24T10:10:05.372Z,87.59
2017-09-24T10:11:23.379Z,88.87
2017-09-24T10:12:29.332Z,88.63
2017-09-24T10:13:35.285Z,88.31
2017-09-24T10:14:41.153Z,88.49
2017-09-24T10:15:47.778Z,88.31
2017-09-24T10:16:53.688Z,88.67
2017-09-24T10:17:59.619Z,88.17
2017-09-24T10:19:05.823Z,88.31
2017-09-24T10:20:11.835Z,88.62
2017-09-24T10:21:18.146Z,89.16
2017-09-24T10:22:24.359Z,88.82
2017-09-24T10:23:31.169Z,89.68
2017-09-24T10:24:37.349Z,89.57
2017-09-24T10:25:43.332Z,89.60
2017-09-24T10:26:50.182Z,89.57
2017-09-24T10:27:56.840Z,89.71
2017-09-24T10:29:23.919Z,89.39
2017-09-24T10:30:53.037Z,89.10
2017-09-24T10:32:05.797Z,89.54
2017-09-24T10:33:11.924Z,90.09
2017-09-24T10:34:19.401Z,90.38
2017-09-24T10:35:25.321Z,89.39
2017-09-24T10:36:31.223Z,90.07
2017-09-24T10:37:37.555Z,90.27
2017-09-24T10:38:44.916Z,90.22
2017-09-24T10:39:51.105Z,90.20
2017-09-24T10:40:58.935Z,89.79
2017-09-24T10:42:05.213Z,89.91
2017-09-24T10:43:11.952Z,90.84
2017-09-24T10:44:18.028Z,90.04
2017-09-24T10:45:24.163Z,90.93
2017-09-24T10:46:31.805Z,90.53
2017-09-24T10:47:39.007Z,89.87
2017-09-24T10:48:47.194Z,89.29
2017-09-24T10:49:53.352Z,88.98
2017-09-24T10:51:01.199Z,88.61
2017-09-24T10:52:07.449Z,89.96
2017-09-24T10:53:14.266Z,90.14
2017-09-24T10:54:21.938Z,90.11
2017-09-24T10:55:32.759Z,89.78
2017-09-24T10:56:38.895Z,89.85
2017-09-24T10:57:48.159Z,89.19
2017-09-24T10:58:54.434Z,89.25
2017-09-24T11:00:00.669Z,89.89
2017-09-24T11:01:06.946Z,90.13
2017-09-24T11:02:12.991Z,89.72
2017-09-24T11:03:19.950Z,89.27
2017-09-24T11:04:26.095Z,90.69
2017-09-24T11:05:32.587Z,90.42
2017-09-24T11:06:39.613Z,90.27
2017-09-24T11:07:45.761Z,89.81
2017-09-24T11:08:53.027Z,89.38
2017-09-24T11:09:59.184Z,90.00
2017-09-24T11:11:05.475Z,89.77
2017-09-24T11:12:11.730Z,90.25
2017-09-24T11:13:19.561Z,89.94
2017-09-24T11:14:27.156Z,90.97
2017-09-24T11:15:33.258Z,91.07
2017-09-24T11:16:39.536Z,91.19
2017-09-24T11:17:45.715Z,91.26
2017-09-24T11:18:54.192Z,90.77
2017-09-24T11:20:01.395Z,90.97
2017-09-24T11:21:08.841Z,90.47
2017-09-24T11:22:15.164Z,91.64
2017-09-24T11:23:21.220Z,90.57
2017-09-24T11:24:27.418Z,90.85
2017-09-24T11:25:33.695Z,90.39
2017-09-24T11:26:39.975Z,90.30
2017-09-24T11:27:46.859Z,90.89
2017-09-24T11:29:01.093Z,91.95
2017-09-24T11:30:10.843Z,91.68
2017-09-24T11:31:17.840Z,91.39
2017-09-24T11:32:25.685Z,91.19
2017-09-24T11:33:31.896Z,91.23
2017-09-24T11:34:38.111Z,91.70
2017-09-24T11:35:44.362Z,91.16
2017-09-24T11:36:50.722Z,91.17
2017-09-24T11:37:57.958Z,91.49
2017-09-24T11:39:03.540Z,91.39
2017-09-24T11:40:09.767Z,90.90
2017-09-24T11:41:16.003Z,90.23
2017-09-24T11:42:22.427Z,90.12
2017-09-24T11:43:31.466Z,90.21
2017-09-24T11:44:38.827Z,90.97
2017-09-24T11:45:45.046Z,90.54
2017-09-24T11:46:52.131Z,90.53
2017-09-24T11:47:59.347Z,91.33
2017-09-24T11:49:06.685Z,90.89
2017-09-24T11:50:12.856Z,90.10
2017-09-24T11:51:18.746Z,90.42
2017-09-24T11:52:24.853Z,90.17
2017-09-24T11:53:30.978Z,90.74
2017-09-24T11:54:37.067Z,90.72
2017-09-24T11:55:43.189Z,90.58
2017-09-24T11:56:50.203Z,90.90
2017-09-24T11:57:56.497Z,91.63
2017-09-24T11:59:02.486Z,91.60
2017-09-24T12:00:08.441Z,92.16
2017-09-24T12:01:14.297Z,92.13
2017-09-24T12:02:21.438Z,92.60
